sensor_id;sensor_type;location;lat;lon;timestamp;pressure;altitude;pressure_sealevel;temperature;humidity
15263;BME280;7733;51.554;13.590;2024-01-07T00:00:22;100490.03;;;2.64;81.26
15263;BME280;7733;51.554;13.590;2024-01-07T00:02:47;100494.75;;;2.41;80.90
15263;BME280;7733;51.554;13.590;2024-01-07T00:05:13;100503.53;;;2.50;82.21
15263;BME280;7733;51.554;13.590;2024-01-07T00:07:39;100500.72;;;2.39;82.35
15263;BME280;7733;51.554;13.590;2024-01-07T00:10:05;100505.66;;;2.27;81.97
15263;BME280;7733;51.554;13.590;2024-01-07T00:12:31;100505.13;;;2.02;83.09
15263;BME280;7733;51.554;13.590;2024-01-07T00:14:57;100505.34;;;2.54;81.94
15263;BME280;7733;51.554;13.590;2024-01-07T00:17:23;100509.94;;;2.26;81.38
15263;BME280;7733;51.554;13.590;2024-01-07T00:19:49;100508.13;;;2.21;81.85
15263;BME280;7733;51.554;13.590;2024-01-07T00:22:14;100503.03;;;2.25;81.91
15263;BME280;7733;51.554;13.590;2024-01-07T00:24:40;100510.75;;;2.24;80.95
15263;BME280;7733;51.554;13.590;2024-01-07T00:27:06;100509.84;;;2.22;82.11
15263;BME280;7733;51.554;13.590;2024-01-07T00:29:33;100508.44;;;1.98;81.98
15263;BME280;7733;51.554;13.590;2024-01-07T00:32:01;100525.09;;;2.09;82.63
15263;BME280;7733;51.554;13.590;2024-01-07T00:34:27;100513.84;;;2.07;81.61
15263;BME280;7733;51.554;13.590;2024-01-07T00:36:53;100513.75;;;2.42;81.03
15263;BME280;7733;51.554;13.590;2024-01-07T00:39:18;100518.25;;;2.11;81.29
15263;BME280;7733;51.554;13.590;2024-01-07T00:41:44;100526.75;;;2.45;81.29
15263;BME280;7733;51.554;13.590;2024-01-07T00:44:10;100528.44;;;2.43;79.60
15263;BME280;7733;51.554;13.590;2024-01-07T00:46:35;100528.66;;;2.14;81.35
15263;BME280;7733;51.554;13.590;2024-01-07T00:49:01;100529.28;;;2.03;81.11
15263;BME280;7733;51.554;13.590;2024-01-07T00:51:27;100528.91;;;2.25;80.69
15263;BME280;7733;51.554;13.590;2024-01-07T00:53:52;100525.19;;;2.14;80.60
15263;BME280;7733;51.554;13.590;2024-01-07T00:56:18;100522.13;;;2.32;79.93
15263;BME280;7733;51.554;13.590;2024-01-07T00:58:44;100539.84;;;2.13;80.77
15263;BME280;7733;51.554;13.590;2024-01-07T01:01:10;100536.34;;;2.11;80.22
15263;BME280;7733;51.554;13.590;2024-01-07T01:03:35;100540.91;;;2.22;79.59
15263;BME280;7733;51.554;13.590;2024-01-07T01:06:01;100540.91;;;2.22;80.17
15263;BME280;7733;51.554;13.590;2024-01-07T01:08:28;100545.50;;;2.35;79.71
15263;BME280;7733;51.554;13.590;2024-01-07T01:10:53;100545.25;;;2.23;80.40
15263;BME280;7733;51.554;13.590;2024-01-07T01:13:19;100551.56;;;2.37;80.39
15263;BME280;7733;51.554;13.590;2024-01-07T01:15:45;100546.97;;;2.22;80.24
15263;BME280;7733;51.554;13.590;2024-01-07T01:18:10;100554.38;;;2.07;80.21
15263;BME280;7733;51.554;13.590;2024-01-07T01:20:36;100549.44;;;2.19;79.10
15263;BME280;7733;51.554;13.590;2024-01-07T01:23:02;100554.47;;;2.11;79.95
15263;BME280;7733;51.554;13.590;2024-01-07T01:25:28;100557.66;;;2.39;79.98
15263;BME280;7733;51.554;13.590;2024-01-07T01:27:56;100556.38;;;2.20;79.59
15263;BME280;7733;51.554;13.590;2024-01-07T01:30:21;100571.50;;;2.02;80.05
15263;BME280;7733;51.554;13.590;2024-01-07T01:32:47;100570.81;;;2.10;80.10
15263;BME280;7733;51.554;13.590;2024-01-07T01:35:13;100572.41;;;2.04;80.27
15263;BME280;7733;51.554;13.590;2024-01-07T01:37:38;100577.75;;;1.75;80.23
15263;BME280;7733;51.554;13.590;2024-01-07T01:40:05;100582.88;;;1.74;80.31
15263;BME280;7733;51.554;13.590;2024-01-07T01:42:30;100584.47;;;2.03;80.17
15263;BME280;7733;51.554;13.590;2024-01-07T01:44:56;100579.72;;;2.22;79.88
15263;BME280;7733;51.554;13.590;2024-01-07T01:47:25;100585.53;;;1.77;80.57
15263;BME280;7733;51.554;13.590;2024-01-07T01:49:51;100584.91;;;2.22;79.10
15263;BME280;7733;51.554;13.590;2024-01-07T01:52:17;100586.16;;;2.01;79.46
15263;BME280;7733;51.554;13.590;2024-01-07T01:54:44;100585.09;;;2.31;79.52
15263;BME280;7733;51.554;13.590;2024-01-07T01:57:17;100583.34;;;2.30;78.67
15263;BME280;7733;51.554;13.590;2024-01-07T01:59:45;100583.75;;;2.48;78.24
15263;BME280;7733;51.554;13.590;2024-01-07T02:02:11;100591.47;;;2.45;78.46
15263;BME280;7733;51.554;13.590;2024-01-07T02:04:37;100597.09;;;1.91;79.12
15263;BME280;7733;51.554;13.590;2024-01-07T02:07:03;100600.00;;;2.03;79.29
15263;BME280;7733;51.554;13.590;2024-01-07T02:09:29;100595.25;;;2.22;78.50
15263;BME280;7733;51.554;13.590;2024-01-07T02:12:05;100589.00;;;2.13;78.41
15263;BME280;7733;51.554;13.590;2024-01-07T02:14:31;100592.97;;;1.99;78.24
15263;BME280;7733;51.554;13.590;2024-01-07T02:16:56;100597.00;;;2.23;77.43
15263;BME280;7733;51.554;13.590;2024-01-07T02:19:22;100595.66;;;2.02;79.12
15263;BME280;7733;51.554;13.590;2024-01-07T02:21:51;100598.88;;;1.94;79.02
15263;BME280;7733;51.554;13.590;2024-01-07T02:24:17;100592.09;;;1.99;78.76
15263;BME280;7733;51.554;13.590;2024-01-07T02:26:43;100597.19;;;2.32;77.49
15263;BME280;7733;51.554;13.590;2024-01-07T02:29:09;100605.47;;;1.81;78.27
15263;BME280;7733;51.554;13.590;2024-01-07T02:31:35;100609.19;;;1.92;78.23
15263;BME280;7733;51.554;13.590;2024-01-07T02:34:00;100611.19;;;2.02;77.56
15263;BME280;7733;51.554;13.590;2024-01-07T02:36:26;100612.25;;;2.12;77.82
15263;BME280;7733;51.554;13.590;2024-01-07T02:38:52;100615.44;;;2.00;78.67
15263;BME280;7733;51.554;13.590;2024-01-07T02:41:17;100615.28;;;1.94;76.94
15263;BME280;7733;51.554;13.590;2024-01-07T02:43:43;100618.94;;;1.68;78.46
15263;BME280;7733;51.554;13.590;2024-01-07T02:46:09;100615.63;;;2.08;77.98
15263;BME280;7733;51.554;13.590;2024-01-07T02:48:35;100621.13;;;1.87;77.11
15263;BME280;7733;51.554;13.590;2024-01-07T02:51:01;100617.97;;;1.99;77.76
15263;BME280;7733;51.554;13.590;2024-01-07T02:53:29;100614.88;;;2.13;77.67
15263;BME280;7733;51.554;13.590;2024-01-07T02:55:54;100611.91;;;1.98;78.24
15263;BME280;7733;51.554;13.590;2024-01-07T02:58:20;100624.63;;;1.89;77.21
15263;BME280;7733;51.554;13.590;2024-01-07T03:00:46;100627.28;;;1.92;77.04
15263;BME280;7733;51.554;13.590;2024-01-07T03:03:11;100626.84;;;1.74;77.95
15263;BME280;7733;51.554;13.590;2024-01-07T03:05:37;100622.88;;;1.88;78.05
15263;BME280;7733;51.554;13.590;2024-01-07T03:08:03;100626.00;;;2.09;77.30
15263;BME280;7733;51.554;13.590;2024-01-07T03:10:29;100627.28;;;1.92;76.86
15263;BME280;7733;51.554;13.590;2024-01-07T03:12:55;100630.69;;;1.90;76.73
15263;BME280;7733;51.554;13.590;2024-01-07T03:15:20;100635.75;;;1.85;76.89
15263;BME280;7733;51.554;13.590;2024-01-07T03:17:46;100637.19;;;1.74;76.91
15263;BME280;7733;51.554;13.590;2024-01-07T03:20:12;100637.00;;;2.01;77.26
15263;BME280;7733;51.554;13.590;2024-01-07T03:22:37;100639.19;;;1.84;77.54
15263;BME280;7733;51.554;13.590;2024-01-07T03:25:04;100637.94;;;2.04;76.27
15263;BME280;7733;51.554;13.590;2024-01-07T03:27:29;100634.00;;;1.84;77.07
15263;BME280;7733;51.554;13.590;2024-01-07T03:29:55;100646.09;;;1.85;77.05
15263;BME280;7733;51.554;13.590;2024-01-07T03:32:21;100645.69;;;1.70;77.35
15263;BME280;7733;51.554;13.590;2024-01-07T03:34:47;100642.59;;;1.83;76.77
15263;BME280;7733;51.554;13.590;2024-01-07T03:37:12;100644.16;;;1.78;76.52
15263;BME280;7733;51.554;13.590;2024-01-07T03:39:38;100653.34;;;1.34;77.66
15263;BME280;7733;51.554;13.590;2024-01-07T03:42:04;100648.13;;;1.64;77.07
15263;BME280;7733;51.554;13.590;2024-01-07T03:44:37;100656.53;;;1.90;75.92
15263;BME280;7733;51.554;13.590;2024-01-07T03:47:04;100663.53;;;1.94;75.77
15263;BME280;7733;51.554;13.590;2024-01-07T03:49:30;100646.09;;;1.85;76.04
15263;BME280;7733;51.554;13.590;2024-01-07T03:51:55;100668.06;;;1.68;76.62
15263;BME280;7733;51.554;13.590;2024-01-07T03:54:21;100659.97;;;1.56;75.38
15263;BME280;7733;51.554;13.590;2024-01-07T03:56:47;100656.53;;;1.57;75.69
15263;BME280;7733;51.554;13.590;2024-01-07T03:59:12;100658.44;;;1.62;75.69
15263;BME280;7733;51.554;13.590;2024-01-07T04:01:38;100665.00;;;1.51;75.99
15263;BME280;7733;51.554;13.590;2024-01-07T04:04:04;100667.63;;;1.52;75.25
15263;BME280;7733;51.554;13.590;2024-01-07T04:06:29;100668.88;;;1.67;75.35
15263;BME280;7733;51.554;13.590;2024-01-07T04:08:55;100677.03;;;1.49;75.66
15263;BME280;7733;51.554;13.590;2024-01-07T04:11:21;100667.22;;;1.37;74.72
15263;BME280;7733;51.554;13.590;2024-01-07T04:13:47;100669.75;;;1.36;75.13
15263;BME280;7733;51.554;13.590;2024-01-07T04:16:17;100674.31;;;1.14;76.09
15263;BME280;7733;51.554;13.590;2024-01-07T04:18:44;100667.75;;;1.90;74.74
15263;BME280;7733;51.554;13.590;2024-01-07T04:21:11;100675.44;;;1.87;74.21
15263;BME280;7733;51.554;13.590;2024-01-07T04:23:38;100676.94;;;1.79;74.69
15263;BME280;7733;51.554;13.590;2024-01-07T04:26:04;100679.75;;;1.55;74.94
15263;BME280;7733;51.554;13.590;2024-01-07T04:28:30;100686.22;;;1.39;75.08
15263;BME280;7733;51.554;13.590;2024-01-07T04:30:55;100686.00;;;1.62;75.43
15263;BME280;7733;51.554;13.590;2024-01-07T04:33:21;100691.13;;;1.93;74.85
15263;BME280;7733;51.554;13.590;2024-01-07T04:35:47;100688.34;;;1.86;74.86
15263;BME280;7733;51.554;13.590;2024-01-07T04:38:13;100694.66;;;1.32;76.10
15263;BME280;7733;51.554;13.590;2024-01-07T04:40:39;100691.41;;;1.71;74.66
15263;BME280;7733;51.554;13.590;2024-01-07T04:43:05;100699.78;;;1.62;75.52
15263;BME280;7733;51.554;13.590;2024-01-07T04:45:30;100690.97;;;1.56;76.10
15263;BME280;7733;51.554;13.590;2024-01-07T04:47:56;100701.13;;;1.48;75.24
15263;BME280;7733;51.554;13.590;2024-01-07T04:50:22;100701.84;;;1.42;75.23
15263;BME280;7733;51.554;13.590;2024-01-07T04:52:48;100700.16;;;1.14;75.55
15263;BME280;7733;51.554;13.590;2024-01-07T04:55:14;100701.47;;;1.30;75.67
15263;BME280;7733;51.554;13.590;2024-01-07T04:57:40;100704.81;;;1.26;76.04
15263;BME280;7733;51.554;13.590;2024-01-07T05:00:06;100707.59;;;1.04;75.24
15263;BME280;7733;51.554;13.590;2024-01-07T05:02:32;100711.06;;;1.04;74.62
15263;BME280;7733;51.554;13.590;2024-01-07T05:04:57;100702.38;;;1.62;74.72
15263;BME280;7733;51.554;13.590;2024-01-07T05:07:23;100718.06;;;1.38;75.12
15263;BME280;7733;51.554;13.590;2024-01-07T05:09:49;100717.34;;;1.42;74.24
15263;BME280;7733;51.554;13.590;2024-01-07T05:12:14;100719.16;;;1.46;74.38
15263;BME280;7733;51.554;13.590;2024-01-07T05:14:41;100715.53;;;1.71;73.67
15263;BME280;7733;51.554;13.590;2024-01-07T05:17:09;100729.72;;;1.54;72.98
15263;BME280;7733;51.554;13.590;2024-01-07T05:19:35;100734.09;;;1.57;73.60
15263;BME280;7733;51.554;13.590;2024-01-07T05:22:01;100736.34;;;1.44;73.51
15263;BME280;7733;51.554;13.590;2024-01-07T05:24:26;100738.56;;;1.32;74.36
15263;BME280;7733;51.554;13.590;2024-01-07T05:26:53;100742.72;;;1.27;73.94
15263;BME280;7733;51.554;13.590;2024-01-07T05:29:18;100743.47;;;0.95;74.25
15263;BME280;7733;51.554;13.590;2024-01-07T05:31:44;100745.81;;;1.15;73.97
15263;BME280;7733;51.554;13.590;2024-01-07T05:34:10;100747.78;;;1.23;73.46
15263;BME280;7733;51.554;13.590;2024-01-07T05:36:36;100753.19;;;1.02;74.64
15263;BME280;7733;51.554;13.590;2024-01-07T05:39:02;100754.88;;;1.01;74.02
15263;BME280;7733;51.554;13.590;2024-01-07T05:41:28;100755.00;;;1.06;73.55
15263;BME280;7733;51.554;13.590;2024-01-07T05:43:54;100754.19;;;1.67;73.23
15263;BME280;7733;51.554;13.590;2024-01-07T05:46:19;100755.72;;;1.60;72.58
15263;BME280;7733;51.554;13.590;2024-01-07T05:48:47;100762.00;;;1.38;72.44
15263;BME280;7733;51.554;13.590;2024-01-07T05:51:14;100766.16;;;1.33;73.76
15263;BME280;7733;51.554;13.590;2024-01-07T05:53:41;100766.69;;;1.51;73.82
15263;BME280;7733;51.554;13.590;2024-01-07T05:56:07;100769.56;;;1.61;73.32
15263;BME280;7733;51.554;13.590;2024-01-07T05:58:34;100770.97;;;1.21;73.68
15263;BME280;7733;51.554;13.590;2024-01-07T06:00:59;100781.69;;;1.05;73.11
15263;BME280;7733;51.554;13.590;2024-01-07T06:03:26;100780.56;;;1.25;71.98
15263;BME280;7733;51.554;13.590;2024-01-07T06:05:52;100792.16;;;1.09;71.53
15263;BME280;7733;51.554;13.590;2024-01-07T06:08:19;100800.69;;;1.07;71.64
15263;BME280;7733;51.554;13.590;2024-01-07T06:10:44;100796.78;;;0.93;71.04
15263;BME280;7733;51.554;13.590;2024-01-07T06:13:10;100798.84;;;1.03;69.87
15263;BME280;7733;51.554;13.590;2024-01-07T06:15:36;100795.31;;;1.29;70.03
15263;BME280;7733;51.554;13.590;2024-01-07T06:18:02;100797.13;;;1.32;69.56
15263;BME280;7733;51.554;13.590;2024-01-07T06:20:27;100806.63;;;0.77;70.38
15263;BME280;7733;51.554;13.590;2024-01-07T06:22:54;100811.06;;;1.08;70.68
15263;BME280;7733;51.554;13.590;2024-01-07T06:25:19;100810.69;;;1.25;69.53
15263;BME280;7733;51.554;13.590;2024-01-07T06:27:46;100814.16;;;1.25;69.87
15263;BME280;7733;51.554;13.590;2024-01-07T06:30:12;100816.66;;;1.22;70.31
15263;BME280;7733;51.554;13.590;2024-01-07T06:32:39;100825.72;;;1.38;70.14
15263;BME280;7733;51.554;13.590;2024-01-07T06:35:05;100830.91;;;0.82;70.50
15263;BME280;7733;51.554;13.590;2024-01-07T06:37:31;100837.31;;;0.68;70.45
15263;BME280;7733;51.554;13.590;2024-01-07T06:39:57;100825.22;;;0.94;69.88
15263;BME280;7733;51.554;13.590;2024-01-07T06:42:24;100832.59;;;0.82;69.59
15263;BME280;7733;51.554;13.590;2024-01-07T06:44:50;100839.34;;;0.78;69.95
15263;BME280;7733;51.554;13.590;2024-01-07T06:47:15;100840.66;;;0.66;71.36
15263;BME280;7733;51.554;13.590;2024-01-07T06:49:41;100835.84;;;0.76;71.34
15263;BME280;7733;51.554;13.590;2024-01-07T06:52:07;100833.16;;;1.27;70.80
15263;BME280;7733;51.554;13.590;2024-01-07T06:54:33;100837.75;;;1.37;70.00
15263;BME280;7733;51.554;13.590;2024-01-07T06:56:59;100839.72;;;1.44;69.44
15263;BME280;7733;51.554;13.590;2024-01-07T06:59:24;100851.19;;;1.26;69.97
15263;BME280;7733;51.554;13.590;2024-01-07T07:01:50;100858.69;;;0.64;70.32
15263;BME280;7733;51.554;13.590;2024-01-07T07:04:16;100854.09;;;1.08;69.25
15263;BME280;7733;51.554;13.590;2024-01-07T07:06:41;100856.25;;;1.21;68.63
15263;BME280;7733;51.554;13.590;2024-01-07T07:09:07;100854.03;;;1.06;68.88
15263;BME280;7733;51.554;13.590;2024-01-07T07:11:33;100866.81;;;0.76;69.19
15263;BME280;7733;51.554;13.590;2024-01-07T07:13:58;100870.13;;;0.72;69.16
15263;BME280;7733;51.554;13.590;2024-01-07T07:16:25;100873.69;;;0.76;69.12
15263;BME280;7733;51.554;13.590;2024-01-07T07:18:51;100878.28;;;0.84;68.32
15263;BME280;7733;51.554;13.590;2024-01-07T07:21:16;100885.19;;;0.60;68.54
15263;BME280;7733;51.554;13.590;2024-01-07T07:23:42;100892.13;;;0.86;67.98
15263;BME280;7733;51.554;13.590;2024-01-07T07:26:08;100900.38;;;0.51;68.87
15263;BME280;7733;51.554;13.590;2024-01-07T07:28:34;100900.06;;;0.42;69.14
15263;BME280;7733;51.554;13.590;2024-01-07T07:30:59;100901.94;;;0.46;68.22
15263;BME280;7733;51.554;13.590;2024-01-07T07:33:25;100903.44;;;0.65;67.44
15263;BME280;7733;51.554;13.590;2024-01-07T07:35:51;100908.13;;;0.51;67.80
15263;BME280;7733;51.554;13.590;2024-01-07T07:38:16;100913.19;;;0.24;67.91
15263;BME280;7733;51.554;13.590;2024-01-07T07:40:42;100919.38;;;0.53;67.56
15263;BME280;7733;51.554;13.590;2024-01-07T07:43:09;100921.44;;;0.39;67.61
15263;BME280;7733;51.554;13.590;2024-01-07T07:45:35;100924.91;;;0.64;67.76
15263;BME280;7733;51.554;13.590;2024-01-07T07:48:00;100919.91;;;0.68;67.19
15263;BME280;7733;51.554;13.590;2024-01-07T07:50:26;100929.34;;;0.20;67.13
15263;BME280;7733;51.554;13.590;2024-01-07T07:52:52;100928.81;;;0.28;67.55
15263;BME280;7733;51.554;13.590;2024-01-07T07:55:19;100937.59;;;0.10;67.36
15263;BME280;7733;51.554;13.590;2024-01-07T07:57:45;100933.16;;;0.29;67.48
15263;BME280;7733;51.554;13.590;2024-01-07T08:00:12;100937.50;;;0.30;67.39
15263;BME280;7733;51.554;13.590;2024-01-07T08:02:38;100949.19;;;0.21;68.08
15263;BME280;7733;51.554;13.590;2024-01-07T08:05:06;100951.22;;;0.29;67.72
15263;BME280;7733;51.554;13.590;2024-01-07T08:07:32;100955.66;;;0.34;67.35
15263;BME280;7733;51.554;13.590;2024-01-07T08:09:58;100953.91;;;0.33;67.26
15263;BME280;7733;51.554;13.590;2024-01-07T08:12:24;100955.66;;;0.34;67.42
15263;BME280;7733;51.554;13.590;2024-01-07T08:14:49;100959.88;;;0.32;66.87
15263;BME280;7733;51.554;13.590;2024-01-07T08:17:16;100954.25;;;0.42;67.87
15263;BME280;7733;51.554;13.590;2024-01-07T08:19:42;100964.63;;;0.67;67.07
15263;BME280;7733;51.554;13.590;2024-01-07T08:22:08;100959.38;;;0.40;67.84
15263;BME280;7733;51.554;13.590;2024-01-07T08:24:34;100954.84;;;0.82;67.58
15263;BME280;7733;51.554;13.590;2024-01-07T08:27:01;100962.09;;;0.45;67.33
15263;BME280;7733;51.554;13.590;2024-01-07T08:29:28;100959.00;;;0.55;67.45
15263;BME280;7733;51.554;13.590;2024-01-07T08:31:54;100950.00;;;0.93;66.12
15263;BME280;7733;51.554;13.590;2024-01-07T08:34:20;100960.28;;;0.66;67.59
15263;BME280;7733;51.554;13.590;2024-01-07T08:36:46;100968.09;;;0.44;67.97
15263;BME280;7733;51.554;13.590;2024-01-07T08:39:14;100969.84;;;0.69;66.65
15263;BME280;7733;51.554;13.590;2024-01-07T08:41:40;100979.44;;;0.49;66.49
15263;BME280;7733;51.554;13.590;2024-01-07T08:44:06;100981.84;;;0.20;67.17
15263;BME280;7733;51.554;13.590;2024-01-07T08:46:34;100980.94;;;0.20;66.79
15263;BME280;7733;51.554;13.590;2024-01-07T08:49:01;100983.13;;;0.09;66.76
15263;BME280;7733;51.554;13.590;2024-01-07T08:51:27;100989.59;;;0.20;65.86
15263;BME280;7733;51.554;13.590;2024-01-07T08:53:52;100986.44;;;0.05;66.68
15263;BME280;7733;51.554;13.590;2024-01-07T08:56:18;101010.09;;;-0.05;65.96
15263;BME280;7733;51.554;13.590;2024-01-07T08:58:44;101006.13;;;-0.19;66.18
15263;BME280;7733;51.554;13.590;2024-01-07T09:01:09;101006.47;;;-0.10;65.86
15263;BME280;7733;51.554;13.590;2024-01-07T09:03:35;101010.50;;;0.06;65.13
15263;BME280;7733;51.554;13.590;2024-01-07T09:06:01;101007.94;;;0.06;65.67
15263;BME280;7733;51.554;13.590;2024-01-07T09:08:26;101018.75;;;-0.03;66.03
15263;BME280;7733;51.554;13.590;2024-01-07T09:10:52;101022.63;;;-0.14;66.04
15263;BME280;7733;51.554;13.590;2024-01-07T09:13:18;101026.94;;;-0.36;66.16
15263;BME280;7733;51.554;13.590;2024-01-07T09:15:43;101028.00;;;-0.31;66.06
15263;BME280;7733;51.554;13.590;2024-01-07T09:18:12;101040.78;;;-0.11;65.06
15263;BME280;7733;51.554;13.590;2024-01-07T09:20:38;101040.94;;;-0.29;65.68
15263;BME280;7733;51.554;13.590;2024-01-07T09:23:04;101045.44;;;-0.23;66.01
15263;BME280;7733;51.554;13.590;2024-01-07T09:25:30;101046.59;;;-0.17;66.19
15263;BME280;7733;51.554;13.590;2024-01-07T09:27:55;101050.56;;;-0.03;65.09
15263;BME280;7733;51.554;13.590;2024-01-07T09:30:21;101045.97;;;0.34;64.72
15263;BME280;7733;51.554;13.590;2024-01-07T09:32:47;101051.34;;;-0.05;64.87
15263;BME280;7733;51.554;13.590;2024-01-07T09:35:12;101050.88;;;-0.17;65.23
15263;BME280;7733;51.554;13.590;2024-01-07T09:37:38;101046.16;;;-0.27;64.52
15263;BME280;7733;51.554;13.590;2024-01-07T09:40:04;101037.94;;;-0.19;64.64
15263;BME280;7733;51.554;13.590;2024-01-07T09:42:32;101042.78;;;0.18;64.16
15263;BME280;7733;51.554;13.590;2024-01-07T09:45:03;101041.53;;;0.07;64.68
15263;BME280;7733;51.554;13.590;2024-01-07T09:47:30;101045.38;;;0.18;64.66
15263;BME280;7733;51.554;13.590;2024-01-07T09:49:56;101052.88;;;-0.10;64.64
15263;BME280;7733;51.554;13.590;2024-01-07T09:52:22;101042.03;;;-0.02;65.04
15263;BME280;7733;51.554;13.590;2024-01-07T09:54:53;101035.41;;;0.27;63.87
15263;BME280;7733;51.554;13.590;2024-01-07T09:57:20;101050.19;;;0.09;64.24
15263;BME280;7733;51.554;13.590;2024-01-07T09:59:46;101053.53;;;0.29;64.69
15263;BME280;7733;51.554;13.590;2024-01-07T10:02:13;101060.94;;;0.66;64.12
15263;BME280;7733;51.554;13.590;2024-01-07T10:04:40;101055.72;;;0.41;64.99
15263;BME280;7733;51.554;13.590;2024-01-07T10:07:06;101053.41;;;0.48;64.96
15263;BME280;7733;51.554;13.590;2024-01-07T10:09:34;101048.94;;;0.67;64.03
15263;BME280;7733;51.554;13.590;2024-01-07T10:12:00;101053.75;;;0.35;64.31
15263;BME280;7733;51.554;13.590;2024-01-07T10:14:26;101047.38;;;0.48;64.92
15263;BME280;7733;51.554;13.590;2024-01-07T10:16:52;101049.28;;;0.77;64.18
15263;BME280;7733;51.554;13.590;2024-01-07T10:19:23;101045.00;;;0.54;65.23
15263;BME280;7733;51.554;13.590;2024-01-07T10:22:00;101055.69;;;0.18;65.82
15263;BME280;7733;51.554;13.590;2024-01-07T10:24:40;101051.44;;;0.41;64.76
15263;BME280;7733;51.554;13.590;2024-01-07T10:27:08;101060.59;;;0.57;64.84
15263;BME280;7733;51.554;13.590;2024-01-07T10:29:34;101055.00;;;0.93;64.44
15263;BME280;7733;51.554;13.590;2024-01-07T10:32:01;101063.63;;;0.69;63.96
15263;BME280;7733;51.554;13.590;2024-01-07T10:34:31;101060.69;;;0.60;64.91
15263;BME280;7733;51.554;13.590;2024-01-07T10:37:00;101059.78;;;0.58;64.82
15263;BME280;7733;51.554;13.590;2024-01-07T10:39:26;101052.81;;;0.79;64.21
15263;BME280;7733;51.554;13.590;2024-01-07T10:41:52;101058.63;;;0.98;64.10
15263;BME280;7733;51.554;13.590;2024-01-07T10:44:25;101049.72;;;1.13;63.79
15263;BME280;7733;51.554;13.590;2024-01-07T10:46:54;101063.59;;;0.68;64.57
15263;BME280;7733;51.554;13.590;2024-01-07T10:49:26;101066.06;;;0.65;65.16
15263;BME280;7733;51.554;13.590;2024-01-07T10:52:02;101059.91;;;1.34;64.70
15263;BME280;7733;51.554;13.590;2024-01-07T10:54:33;101057.28;;;0.83;64.01
15263;BME280;7733;51.554;13.590;2024-01-07T10:57:13;101051.81;;;1.00;64.82
15263;BME280;7733;51.554;13.590;2024-01-07T10:59:40;101057.88;;;0.76;63.88
15263;BME280;7733;51.554;13.590;2024-01-07T11:02:09;101050.06;;;0.75;64.46
15263;BME280;7733;51.554;13.590;2024-01-07T11:04:56;101060.53;;;1.02;63.32
15263;BME280;7733;51.554;13.590;2024-01-07T11:07:35;101050.94;;;1.23;63.27
15263;BME280;7733;51.554;13.590;2024-01-07T11:10:20;101055.97;;;1.20;63.50
15263;BME280;7733;51.554;13.590;2024-01-07T11:12:56;101041.97;;;1.39;63.50
15263;BME280;7733;51.554;13.590;2024-01-07T11:18:21;101054.63;;;1.57;62.47
15263;BME280;7733;51.554;13.590;2024-01-07T11:20:48;101054.81;;;1.88;62.04
15263;BME280;7733;51.554;13.590;2024-01-07T11:23:36;101044.06;;;1.76;61.36
15263;BME280;7733;51.554;13.590;2024-01-07T11:26:08;101049.41;;;1.80;61.43
15263;BME280;7733;51.554;13.590;2024-01-07T11:28:53;101046.25;;;1.64;60.92
15263;BME280;7733;51.554;13.590;2024-01-07T11:31:42;101051.84;;;1.25;61.97
15263;BME280;7733;51.554;13.590;2024-01-07T11:34:08;101058.72;;;1.25;61.08
15263;BME280;7733;51.554;13.590;2024-01-07T11:36:37;101051.56;;;1.95;60.88
15263;BME280;7733;51.554;13.590;2024-01-07T11:39:04;101050.59;;;1.14;60.83
15263;BME280;7733;51.554;13.590;2024-01-07T11:41:35;101057.94;;;1.52;61.10
15263;BME280;7733;51.554;13.590;2024-01-07T11:44:02;101046.78;;;1.53;60.56
15263;BME280;7733;51.554;13.590;2024-01-07T11:46:29;101046.22;;;1.37;60.86
15263;BME280;7733;51.554;13.590;2024-01-07T11:48:59;101045.66;;;1.72;61.16
15263;BME280;7733;51.554;13.590;2024-01-07T11:51:27;101052.50;;;1.43;61.26
15263;BME280;7733;51.554;13.590;2024-01-07T11:53:53;101051.13;;;1.55;61.44
15263;BME280;7733;51.554;13.590;2024-01-07T11:56:19;101058.91;;;1.56;60.74
15263;BME280;7733;51.554;13.590;2024-01-07T11:58:45;101052.06;;;1.31;60.93
15263;BME280;7733;51.554;13.590;2024-01-07T12:01:10;101054.16;;;1.95;60.26
15263;BME280;7733;51.554;13.590;2024-01-07T12:03:36;101061.00;;;1.93;60.34
15263;BME280;7733;51.554;13.590;2024-01-07T12:06:04;101052.59;;;1.73;60.48
15263;BME280;7733;51.554;13.590;2024-01-07T12:08:30;101063.91;;;1.25;60.29
15263;BME280;7733;51.554;13.590;2024-01-07T12:10:56;101064.00;;;1.28;60.44
15263;BME280;7733;51.554;13.590;2024-01-07T12:13:22;101056.41;;;1.32;60.83
15263;BME280;7733;51.554;13.590;2024-01-07T12:15:48;101062.59;;;1.63;60.20
15263;BME280;7733;51.554;13.590;2024-01-07T12:18:14;101064.72;;;2.01;59.85
15263;BME280;7733;51.554;13.590;2024-01-07T12:20:40;101058.31;;;2.19;59.81
15263;BME280;7733;51.554;13.590;2024-01-07T12:23:10;101063.94;;;1.51;60.71
15263;BME280;7733;51.554;13.590;2024-01-07T12:25:36;101064.41;;;1.40;60.32
15263;BME280;7733;51.554;13.590;2024-01-07T12:28:06;101069.53;;;1.64;59.80
15263;BME280;7733;51.554;13.590;2024-01-07T12:30:32;101061.31;;;1.77;60.04
15263;BME280;7733;51.554;13.590;2024-01-07T12:32:58;101059.88;;;2.12;60.16
15263;BME280;7733;51.554;13.590;2024-01-07T12:35:28;101060.72;;;1.59;60.88
15263;BME280;7733;51.554;13.590;2024-01-07T12:37:53;101053.97;;;1.89;59.95
15263;BME280;7733;51.554;13.590;2024-01-07T12:40:19;101049.69;;;2.18;60.08
15263;BME280;7733;51.554;13.590;2024-01-07T12:42:46;101047.56;;;2.33;58.99
15263;BME280;7733;51.554;13.590;2024-01-07T12:45:16;101057.09;;;2.34;59.16
15263;BME280;7733;51.554;13.590;2024-01-07T12:47:42;101058.50;;;2.23;59.15
15263;BME280;7733;51.554;13.590;2024-01-07T12:50:09;101063.56;;;2.20;60.25
15263;BME280;7733;51.554;13.590;2024-01-07T12:52:39;101054.00;;;2.46;59.34
15263;BME280;7733;51.554;13.590;2024-01-07T12:55:06;101063.41;;;1.87;60.94
15263;BME280;7733;51.554;13.590;2024-01-07T12:57:32;101064.03;;;2.07;61.22
15263;BME280;7733;51.554;13.590;2024-01-07T12:59:59;101068.00;;;1.97;60.89